Wetterdaten: aktuell Sonntag, 22.09.2019 10:10
Datum Zeit Temp. A. Temp. 5cm Feuchte A. Luftdruck Regen Wind Richtung Richtung Taupunkt Windchill Windben Empfang
22.09.2019 10:10 13,8 C 13,3 C 68 % 1016,3 hPa 0,0 l/m 6,5 km/h (2 Bft) O 79 8,0 C 13,8 C 11,3 km/h (2 Bft) 98 %
22.09.2019 10:08 13,8 C 13,3 C 68 % 1016,3 hPa 0,0 l/m 10,8 km/h (2 Bft) NO 34 8,0 C 11,4 C 16,1 km/h (3 Bft) 100 %
22.09.2019 10:06 13,8 C 13,3 C 68 % 1016,3 hPa 0,0 l/m 7,6 km/h (2 Bft) NO 47 8,0 C 13,1 C 11,3 km/h (2 Bft) 100 %
22.09.2019 10:04 13,5 C 12,8 C 70 % 1016,4 hPa 0,0 l/m 8,1 km/h (2 Bft) NO 36 8,1 C 12,5 C 14,5 km/h (3 Bft) 100 %
22.09.2019 10:02 13,3 C 12,8 C 70 % 1016,4 hPa 0,0 l/m 10,8 km/h (2 Bft) NO 44 7,9 C 10,9 C 14,5 km/h (3 Bft) 100 %
22.09.2019 10:00 13,1 C 12,8 C 70 % 1016,3 hPa 0,0 l/m 8,4 km/h (2 Bft) O-NO 69 7,8 C 11,9 C 12,9 km/h (3 Bft) 100 %
22.09.2019 09:58 13,1 C 12,8 C 70 % 1016,3 hPa 0,0 l/m 9,8 km/h (2 Bft) O-NO 73 7,8 C 11,1 C 14,5 km/h (3 Bft) 100 %
22.09.2019 09:56 13,2 C 12,8 C 71 % 1016,3 hPa 0,0 l/m 10,2 km/h (2 Bft) O-NO 68 8,1 C 11,0 C 16,1 km/h (3 Bft) 98 %
22.09.2019 09:54 12,9 C 12,8 C 69 % 1016,5 hPa 0,0 l/m 8,9 km/h (2 Bft) O-SO 105 7,4 C 11,4 C 12,9 km/h (3 Bft) 100 %
22.09.2019 09:52 13,0 C 12,8 C 70 % 1016,6 hPa 0,0 l/m 9,4 km/h (2 Bft) O-SO 106 7,7 C 11,2 C 14,5 km/h (3 Bft) 100 %
22.09.2019 09:50 12,9 C 12,2 C 71 % 1016,6 hPa 0,0 l/m 7,6 km/h (2 Bft) O-NO 73 7,8 C 12,1 C 11,3 km/h (2 Bft) 100 %
22.09.2019 09:48 12,8 C 12,8 C 72 % 1016,5 hPa 0,0 l/m 10,2 km/h (2 Bft) O-NO 62 7,9 C 10,6 C 14,5 km/h (3 Bft) 100 %
22.09.2019 09:46 12,8 C 12,8 C 71 % 1016,5 hPa 0,0 l/m 10,1 km/h (2 Bft) O-SO 103 7,7 C 10,6 C 12,9 km/h (3 Bft) 96 %
22.09.2019 09:44 12,8 C 12,8 C 72 % 1016,6 hPa 0,0 l/m 11,6 km/h (2 Bft) O 84 7,9 C 9,9 C 17,7 km/h (3 Bft) 98 %
22.09.2019 09:42 12,6 C 12,2 C 72 % 1016,7 hPa 0,0 l/m 6,7 km/h (2 Bft) O-NO 63 7,7 C 12,4 C 12,9 km/h (3 Bft) 98 %
22.09.2019 09:40 12,5 C 12,2 C 73 % 1016,8 hPa 0,0 l/m 5,4 km/h (1 Bft) O-NO 70 7,8 C 12,5 C 11,3 km/h (2 Bft) 97 %
22.09.2019 09:38 12,4 C 12,2 C 72 % 1016,9 hPa 0,0 l/m 5,9 km/h (2 Bft) O-NO 76 7,5 C 12,4 C 11,3 km/h (2 Bft) 98 %
22.09.2019 09:36 12,4 C 12,2 C 73 % 1016,9 hPa 0,0 l/m 5,2 km/h (1 Bft) O-SO 106 7,7 C 12,4 C 9,7 km/h (2 Bft) 98 %
22.09.2019 09:34 12,1 C 12,2 C 73 % 1016,8 hPa 0,0 l/m 8,7 km/h (2 Bft) O 90 7,4 C 10,6 C 14,5 km/h (3 Bft) 98 %
22.09.2019 09:32 12,0 C 12,2 C 74 % 1016,8 hPa 0,0 l/m 5,1 km/h (1 Bft) O 100 7,5 C 12,0 C 11,3 km/h (2 Bft) 96 %
22.09.2019 09:30 11,8 C 11,7 C 73 % 1016,8 hPa 0,0 l/m 8,1 km/h (2 Bft) O 92 7,1 C 10,7 C 12,9 km/h (3 Bft) 98 %
22.09.2019 09:28 11,8 C 11,7 C 73 % 1016,9 hPa 0,0 l/m 7,5 km/h (2 Bft) O 88 7,1 C 11,1 C 12,9 km/h (3 Bft) 98 %
22.09.2019 09:26 11,8 C 11,7 C 73 % 1016,9 hPa 0,0 l/m 8,9 km/h (2 Bft) O 88 7,1 C 10,2 C 12,9 km/h (3 Bft) 98 %
22.09.2019 09:24 11,8 C 11,7 C 74 % 1016,9 hPa 0,0 l/m 8,9 km/h (2 Bft) O 99 7,3 C 10,2 C 12,9 km/h (3 Bft) 93 %
22.09.2019 09:22 11,7 C 11,7 C 74 % 1016,9 hPa 0,0 l/m 10,3 km/h (2 Bft) O-SO 113 7,2 C 9,3 C 16,1 km/h (3 Bft) 98 %
22.09.2019 09:20 11,6 C 11,7 C 74 % 1016,9 hPa 0,0 l/m 6,2 km/h (2 Bft) O-SO 105 7,1 C 11,6 C 11,3 km/h (2 Bft) 98 %
22.09.2019 09:18 11,5 C 11,7 C 75 % 1016,9 hPa 0,0 l/m 5,2 km/h (1 Bft) O 92 7,2 C 11,5 C 9,7 km/h (2 Bft) 96 %
22.09.2019 09:16 11,5 C 11,7 C 74 % 1016,9 hPa 0,0 l/m 8,6 km/h (2 Bft) O 82 7,0 C 10,1 C 12,9 km/h (3 Bft) 94 %
22.09.2019 09:14 11,5 C 11,1 C 74 % 1016,8 hPa 0,0 l/m 9,6 km/h (2 Bft) O 80 7,0 C 9,5 C 12,9 km/h (3 Bft) 98 %
22.09.2019 09:12 11,4 C 11,1 C 75 % 1017,0 hPa 0,0 l/m 6,8 km/h (2 Bft) O 84 7,1 C 11,1 C 11,3 km/h (2 Bft) 97 %
22.09.2019 09:10 11,4 C 11,1 C 74 % 1017,1 hPa 0,0 l/m 7,2 km/h (2 Bft) O 84 6,9 C 10,9 C 12,9 km/h (3 Bft) 96 %
_ Min-Zeit 06:20 05:22 10:06 06:38 - 03:58 - - 05:24 05:34 03:58 04:00
Minimum _ 6,7 C 6,7 C 68 % 1016,1 hPa - 0,0 km/h (0 Bft) - - 4,5 C 4,8 C 0,0 km/h (0 Bft) 87 %
_ Max-Zeit 10:06 10:06 06:24 00:00 00:00 02:44 - - 10:04 10:10 09:44 00:50
Maximum _ 13,8 C 13,3 C 87 % 1018,8 hPa 0,0 l/m 11,8 km/h
O-NO (2 Bft)
- - 8,1 C 13,8 C 17,7 km/h
O (3 Bft)
100 %
Durchschnitt _ 9,0 C 8,5 C 81 % 1017,1 hPa #0,0 l/m 5,4 km/h (1 Bft) O-NO - 5,9 C 8,6 C 7,7 km/h (2 Bft) 97 %